Time;durP1;ratioP1;P1;durP2;ratioP2;P2;SDS_P1;SDS_P2;PMS_P1;PMS_P2;Temp;Humidity;BMP_temperature;BMP_pressure;BME280_temperature;BME280_humidity;BME280_pressure;Samples;Min_cycle;Max_cycle;Signal;HPM_P1;HPM_P2
2022/01/29 00:00:30;;;;;;;24.85;8.18;;;7.20;99.90;;;;;;6159613;23;20021;-75
2022/01/29 00:02:55;;;;;;;32.67;9.25;;;7.20;99.90;;;;;;6185279;23;20027;-75
2022/01/29 00:05:21;;;;;;;26.15;7.55;;;7.20;99.90;;;;;;6185895;23;20013;-75
2022/01/29 00:07:47;;;;;;;29.48;8.50;;;7.30;99.90;;;;;;6185885;23;20021;-75
2022/01/29 00:10:14;;;;;;;25.20;9.48;;;7.30;99.90;;;;;;6185050;23;20076;-75
2022/01/29 00:12:40;;;;;;;29.17;9.63;;;7.30;99.90;;;;;;6186279;23;20093;-75
2022/01/29 00:15:06;;;;;;;26.17;8.38;;;7.30;99.90;;;;;;6186234;23;20017;-75
2022/01/29 00:17:32;;;;;;;21.92;9.20;;;7.30;99.90;;;;;;6184735;23;20111;-75
2022/01/29 00:19:58;;;;;;;39.38;10.60;;;7.30;99.90;;;;;;6159507;23;20025;-76
2022/01/29 00:22:24;;;;;;;32.97;9.93;;;7.20;99.90;;;;;;6159670;23;20087;-75
2022/01/29 00:24:51;;;;;;;28.58;10.00;;;7.20;99.90;;;;;;6185223;23;20052;-75
2022/01/29 00:27:19;;;;;;;30.48;9.25;;;7.20;99.90;;;;;;6186112;23;20017;-75
2022/01/29 00:29:45;;;;;;;32.67;10.70;;;7.20;99.90;;;;;;6159578;23;20021;-75
2022/01/29 00:32:12;;;;;;;29.80;11.70;;;7.20;99.90;;;;;;6158532;23;20101;-75
2022/01/29 00:34:39;;;;;;;43.30;12.32;;;7.20;99.90;;;;;;6186379;23;20105;-75
2022/01/29 00:37:05;;;;;;;33.17;11.55;;;7.20;99.90;;;;;;6158231;23;20357;-76
2022/01/29 00:39:31;;;;;;;33.65;12.95;;;7.20;99.90;;;;;;6185780;23;20025;-75
2022/01/29 00:41:57;;;;;;;38.50;13.00;;;7.20;99.90;;;;;;6186141;23;20092;-76
2022/01/29 00:44:23;;;;;;;38.83;11.63;;;7.20;99.90;;;;;;6184906;23;20017;-76
2022/01/29 00:46:48;;;;;;;32.70;10.05;;;7.20;99.90;;;;;;6186048;23;20017;-76
2022/01/29 00:49:14;;;;;;;42.47;11.50;;;7.20;99.90;;;;;;6159480;23;20025;-75
2022/01/29 00:51:40;;;;;;;26.35;12.55;;;7.20;99.90;;;;;;6184904;23;20349;-75
2022/01/29 00:54:06;;;;;;;34.67;12.25;;;7.20;99.90;;;;;;6186092;23;20013;-76
2022/01/29 00:56:32;;;;;;;33.85;11.35;;;7.20;99.90;;;;;;6185952;23;20099;-75
2022/01/29 00:58:58;;;;;;;38.80;11.85;;;7.20;99.90;;;;;;6184677;23;20048;-76
2022/01/29 01:01:24;;;;;;;31.60;12.57;;;7.20;99.90;;;;;;6186040;23;20017;-74
2022/01/29 01:03:50;;;;;;;36.15;11.85;;;7.20;99.90;;;;;;6185976;23;20015;-75
2022/01/29 01:06:16;;;;;;;33.55;11.43;;;7.30;99.90;;;;;;6184562;23;20464;-76
2022/01/29 01:08:42;;;;;;;33.72;11.95;;;7.20;99.90;;;;;;6186025;23;20080;-75
2022/01/29 01:11:07;;;;;;;27.40;10.93;;;7.20;99.90;;;;;;6159045;23;20021;-75
2022/01/29 01:13:34;;;;;;;33.88;12.65;;;7.20;99.90;;;;;;6185049;23;20039;-75
2022/01/29 01:16:01;;;;;;;42.03;13.73;;;7.20;99.90;;;;;;6159136;23;20040;-75
2022/01/29 01:18:27;;;;;;;48.22;13.80;;;7.30;99.90;;;;;;6185955;23;20025;-76
2022/01/29 01:20:53;;;;;;;38.22;13.82;;;7.30;99.90;;;;;;6184745;23;20087;-75
2022/01/29 01:23:20;;;;;;;39.63;14.43;;;7.30;99.90;;;;;;6158972;23;20032;-76
2022/01/29 01:25:46;;;;;;;31.20;11.77;;;7.30;99.90;;;;;;6185619;23;20445;-76
2022/01/29 01:28:12;;;;;;;31.80;12.93;;;7.30;99.90;;;;;;6185014;23;20020;-76
2022/01/29 01:30:38;;;;;;;45.85;12.35;;;7.30;99.90;;;;;;6187306;23;20036;-75
2022/01/29 01:33:04;;;;;;;38.13;13.43;;;7.30;99.90;;;;;;6187310;23;20017;-75
2022/01/29 01:35:40;;;;;;;30.02;12.32;;;7.40;99.90;;;;;;6159772;23;20021;-75
2022/01/29 01:40:43;;;;;;;42.00;13.05;;;7.40;99.90;;;;;;6186542;23;20029;-75
2022/01/29 01:43:09;;;;;;;45.67;13.07;;;7.40;99.90;;;;;;6187676;23;20024;-75
2022/01/29 01:45:35;;;;;;;26.80;12.18;;;7.40;99.90;;;;;;6187113;23;20009;-75
2022/01/29 01:48:04;;;;;;;47.85;14.15;;;7.40;99.90;;;;;;6159950;23;20016;-75
2022/01/29 01:50:31;;;;;;;44.85;14.68;;;7.50;99.90;;;;;;6160705;23;20167;-75
2022/01/29 01:52:58;;;;;;;38.83;13.55;;;7.50;99.90;;;;;;6187113;23;20508;-75
2022/01/29 01:55:24;;;;;;;40.05;13.25;;;7.50;99.90;;;;;;6186135;23;20480;-76
2022/01/29 01:57:50;;;;;;;40.03;13.43;;;7.50;99.90;;;;;;6160724;23;20028;-75
2022/01/29 02:00:16;;;;;;;37.35;13.20;;;7.50;99.90;;;;;;6160805;23;20028;-76
2022/01/29 02:02:42;;;;;;;36.88;13.50;;;7.50;99.90;;;;;;6186135;23;20017;-76
2022/01/29 02:05:09;;;;;;;39.08;13.07;;;7.50;99.90;;;;;;6187371;23;20017;-76
2022/01/29 02:07:35;;;;;;;33.97;12.73;;;7.50;99.90;;;;;;6160623;23;20382;-75
2022/01/29 02:10:02;;;;;;;35.05;13.13;;;7.50;99.90;;;;;;6159695;23;20025;-75
2022/01/29 02:12:31;;;;;;;32.08;11.57;;;7.50;99.90;;;;;;6160686;23;20013;-75
2022/01/29 02:15:02;;;;;;;35.28;12.48;;;7.50;99.90;;;;;;6187427;23;20021;-75
2022/01/29 02:17:28;;;;;;;40.47;13.32;;;7.50;99.90;;;;;;6186060;23;20084;-76
2022/01/29 02:19:53;;;;;;;38.33;13.23;;;7.50;99.90;;;;;;6160626;23;20121;-76
2022/01/29 02:22:19;;;;;;;43.15;14.23;;;7.50;99.90;;;;;;6160131;23;20064;-76
2022/01/29 02:24:45;;;;;;;36.00;12.35;;;7.50;99.90;;;;;;6159659;23;20442;-75
2022/01/29 02:27:10;;;;;;;35.55;13.43;;;7.50;99.90;;;;;;6160231;23;20081;-75
2022/01/29 02:29:36;;;;;;;39.22;13.82;;;7.50;99.90;;;;;;6186088;23;20084;-76
2022/01/29 02:32:03;;;;;;;34.67;12.55;;;7.50;99.90;;;;;;6160534;23;20449;-76
2022/01/29 02:34:31;;;;;;;37.58;13.20;;;7.50;99.90;;;;;;6135996;23;20017;-76
2022/01/29 02:36:56;;;;;;;36.95;12.75;;;7.50;99.90;;;;;;6185626;23;20021;-75
2022/01/29 02:39:22;;;;;;;37.72;12.18;;;7.50;99.90;;;;;;6186978;23;20079;-75
2022/01/29 02:41:48;;;;;;;37.35;11.88;;;7.50;99.90;;;;;;6186612;23;20009;-75
2022/01/29 02:44:20;;;;;;;34.00;11.30;;;7.50;99.90;;;;;;6185767;23;20157;-76
2022/01/29 02:46:57;;;;;;;38.55;12.32;;;7.50;99.90;;;;;;6187118;23;20041;-75
2022/01/29 02:49:25;;;;;;;31.30;12.90;;;7.60;99.90;;;;;;6187121;23;20017;-76
2022/01/29 02:51:56;;;;;;;36.55;11.70;;;7.60;99.90;;;;;;6159205;23;20056;-75
2022/01/29 02:54:23;;;;;;;43.30;13.05;;;7.60;99.90;;;;;;6186652;23;20017;-75
2022/01/29 02:56:49;;;;;;;38.45;13.32;;;7.60;99.90;;;;;;6160293;23;20385;-76
2022/01/29 02:59:15;;;;;;;30.05;12.00;;;7.70;99.90;;;;;;6185858;23;20017;-75
2022/01/29 03:01:41;;;;;;;26.83;11.63;;;7.70;99.90;;;;;;6186876;23;20017;-75
2022/01/29 03:04:07;;;;;;;40.75;13.23;;;7.70;99.90;;;;;;6160156;23;20021;-75
2022/01/29 03:06:33;;;;;;;35.30;13.07;;;7.70;99.90;;;;;;6185252;23;20083;-75
2022/01/29 03:08:59;;;;;;;36.33;12.73;;;7.80;99.90;;;;;;6186947;23;20052;-76
2022/01/29 03:11:25;;;;;;;40.42;13.57;;;7.80;99.90;;;;;;6159884;23;20028;-75
2022/01/29 03:13:51;;;;;;;33.65;13.05;;;7.90;99.90;;;;;;6185779;23;20013;-75
2022/01/29 03:16:18;;;;;;;31.80;11.60;;;7.90;99.90;;;;;;6159989;23;20044;-75
2022/01/29 03:18:43;;;;;;;29.30;10.50;;;7.90;99.90;;;;;;6185367;23;20500;-75
2022/01/29 03:21:09;;;;;;;29.13;11.65;;;8.00;99.90;;;;;;6186230;23;20021;-76
2022/01/29 03:23:35;;;;;;;26.92;11.75;;;8.00;99.90;;;;;;6186616;23;20013;-75
2022/01/29 03:26:01;;;;;;;35.88;11.65;;;8.00;99.90;;;;;;6185821;23;20021;-75
2022/01/29 03:28:28;;;;;;;30.88;12.25;;;8.10;99.90;;;;;;6159924;23;20044;-75
2022/01/29 03:30:55;;;;;;;31.23;10.82;;;8.10;99.90;;;;;;6159868;23;20083;-76
2022/01/29 03:33:24;;;;;;;32.40;12.15;;;8.10;99.90;;;;;;6185458;23;20017;-75
2022/01/29 03:35:50;;;;;;;26.75;11.60;;;8.10;99.90;;;;;;6185960;23;20088;-75
2022/01/29 03:38:16;;;;;;;30.77;13.35;;;8.10;99.90;;;;;;6159882;23;20049;-75
2022/01/29 03:40:44;;;;;;;35.30;12.05;;;8.10;99.90;;;;;;6185421;23;20023;-75
2022/01/29 03:43:13;;;;;;;33.83;12.70;;;8.10;99.90;;;;;;6186482;23;20084;-75
2022/01/29 03:45:39;;;;;;;29.40;11.80;;;8.10;99.90;;;;;;6135413;23;20024;-75
2022/01/29 03:48:08;;;;;;;26.58;12.50;;;8.10;99.90;;;;;;6185502;23;20483;-75
2022/01/29 03:50:35;;;;;;;30.88;11.60;;;8.10;99.90;;;;;;6159570;23;20071;-75
2022/01/29 03:53:00;;;;;;;30.20;12.68;;;8.10;99.90;;;;;;6159532;23;20147;-75
2022/01/29 03:55:27;;;;;;;20.15;10.82;;;8.10;99.90;;;;;;6185405;23;20053;-76
2022/01/29 03:57:52;;;;;;;32.38;14.82;;;8.10;99.90;;;;;;6186345;23;20093;-75
2022/01/29 04:00:18;;;;;;;24.75;11.30;;;8.20;99.90;;;;;;6185931;23;20037;-75
2022/01/29 04:02:44;;;;;;;29.20;12.90;;;8.20;99.90;;;;;;6158689;23;20017;-75
2022/01/29 04:05:11;;;;;;;31.83;13.55;;;8.20;99.90;;;;;;6185971;23;20017;-76
2022/01/29 04:07:38;;;;;;;34.75;14.02;;;8.20;99.90;;;;;;6186182;23;20021;-76
2022/01/29 04:10:04;;;;;;;28.05;12.15;;;8.20;99.90;;;;;;6184988;23;20017;-75
2022/01/29 04:12:36;;;;;;;34.92;13.63;;;8.20;99.90;;;;;;6186246;23;20017;-75
2022/01/29 04:15:02;;;;;;;27.25;11.55;;;8.20;99.90;;;;;;6158701;23;20438;-75
2022/01/29 04:17:28;;;;;;;29.65;12.75;;;8.20;99.90;;;;;;6185827;23;20096;-75
2022/01/29 04:19:53;;;;;;;29.48;12.10;;;8.20;99.90;;;;;;6186189;23;20017;-75
2022/01/29 04:22:19;;;;;;;30.15;12.73;;;8.20;99.90;;;;;;6185038;23;20612;-75
2022/01/29 04:24:45;;;;;;;27.38;11.77;;;8.20;99.90;;;;;;6159613;23;20048;-76
2022/01/29 04:27:17;;;;;;;24.85;11.50;;;8.30;99.90;;;;;;6185955;23;20021;-75
2022/01/29 04:29:56;;;;;;;29.83;12.70;;;8.20;99.90;;;;;;6158677;23;20028;-75
2022/01/29 04:32:33;;;;;;;31.83;13.70;;;8.20;99.90;;;;;;6159671;23;20020;-75
2022/01/29 04:34:59;;;;;;;27.23;13.15;;;8.30;99.90;;;;;;6186166;23;20028;-75
2022/01/29 04:37:24;;;;;;;25.70;12.15;;;8.30;99.90;;;;;;6184858;23;20017;-75
2022/01/29 04:39:50;;;;;;;25.15;12.95;;;8.30;99.90;;;;;;6185922;23;20025;-76
2022/01/29 04:42:16;;;;;;;24.13;12.70;;;8.30;99.90;;;;;;6186050;23;20017;-76
2022/01/29 04:44:41;;;;;;;27.40;12.15;;;8.30;99.90;;;;;;6185005;23;20021;-75
2022/01/29 04:47:07;;;;;;;23.75;10.90;;;8.40;99.90;;;;;;6159441;23;20017;-76
2022/01/29 04:49:33;;;;;;;22.48;11.65;;;8.40;99.90;;;;;;6159492;23;20036;-75
2022/01/29 04:51:58;;;;;;;30.00;12.23;;;8.40;99.90;;;;;;6158625;23;20111;-75
2022/01/29 04:54:24;;;;;;;24.58;12.25;;;8.40;99.90;;;;;;6159409;23;20024;-75
2022/01/29 04:56:50;;;;;;;22.63;10.57;;;8.40;99.90;;;;;;6185600;23;20071;-75
2022/01/29 04:59:15;;;;;;;20.08;10.43;;;8.50;99.90;;;;;;6185223;23;20024;-75
2022/01/29 05:01:41;;;;;;;23.48;10.48;;;8.50;99.90;;;;;;6159444;23;20048;-75
2022/01/29 05:04:07;;;;;;;20.48;10.88;;;8.50;99.90;;;;;;6160156;23;20024;-75
2022/01/29 05:06:32;;;;;;;21.70;12.38;;;8.50;99.90;;;;;;6186638;23;20441;-75
2022/01/29 05:08:58;;;;;;;22.67;11.77;;;8.50;99.90;;;;;;6187908;23;20020;-75
2022/01/29 05:11:24;;;;;;;17.63;10.55;;;8.60;99.90;;;;;;6186441;23;20021;-75
2022/01/29 05:13:49;;;;;;;19.88;10.43;;;8.60;99.90;;;;;;6161199;23;20032;-75
2022/01/29 05:27:04;;;;;;;17.70;9.98;;;8.60;99.90;;;;;;6160133;23;20271;-75
2022/01/29 05:29:33;;;;;;;24.80;11.13;;;8.70;99.90;;;;;;6187782;23;20067;-76
2022/01/29 05:32:05;;;;;;;21.27;10.60;;;8.70;99.90;;;;;;6187367;23;20021;-75
2022/01/29 05:34:31;;;;;;;22.17;11.57;;;8.70;99.90;;;;;;6186391;23;20445;-75
2022/01/29 05:36:56;;;;;;;23.75;10.07;;;8.70;99.90;;;;;;6187081;23;20017;-75
2022/01/29 05:39:24;;;;;;;24.65;11.85;;;8.70;99.90;;;;;;6186394;23;20017;-75
2022/01/29 05:41:50;;;;;;;18.25;10.60;;;8.70;99.90;;;;;;6187326;23;20028;-75
2022/01/29 05:44:16;;;;;;;25.67;11.32;;;8.80;99.90;;;;;;6187621;23;20017;-75
2022/01/29 05:46:42;;;;;;;19.98;12.15;;;8.80;99.90;;;;;;6186333;23;20025;-75
2022/01/29 05:49:08;;;;;;;17.70;9.88;;;8.80;99.90;;;;;;6160918;23;20377;-75
2022/01/29 05:51:34;;;;;;;17.15;9.73;;;8.80;99.90;;;;;;6160612;23;20056;-76
2022/01/29 05:54:01;;;;;;;19.02;10.50;;;8.80;99.90;;;;;;6186421;23;20052;-76
2022/01/29 05:56:27;;;;;;;16.13;10.38;;;8.80;99.90;;;;;;6187433;23;20071;-75
2022/01/29 05:58:53;;;;;;;17.83;10.50;;;8.80;99.90;;;;;;6160385;23;20036;-75
2022/01/29 06:01:19;;;;;;;20.45;11.02;;;8.80;99.90;;;;;;6186590;23;20017;-75
2022/01/29 06:03:45;;;;;;;28.50;9.90;;;8.80;99.90;;;;;;6187054;23;20438;-75
2022/01/29 06:06:11;;;;;;;19.90;10.02;;;8.80;99.90;;;;;;6187313;23;20064;-75
2022/01/29 06:08:37;;;;;;;21.02;10.73;;;8.90;99.90;;;;;;6186456;23;20018;-76
2022/01/29 06:11:02;;;;;;;20.73;10.05;;;8.90;99.90;;;;;;6155676;23;20453;-75
2022/01/29 06:13:28;;;;;;;17.00;8.75;;;8.90;99.90;;;;;;6155830;23;20046;-75
2022/01/29 06:15:54;;;;;;;17.85;10.15;;;8.90;99.90;;;;;;6154096;23;20021;-75
2022/01/29 06:18:21;;;;;;;17.83;10.20;;;8.90;99.90;;;;;;6155757;23;20442;-75
2022/01/29 06:20:51;;;;;;;17.13;9.20;;;8.90;99.90;;;;;;6157519;23;20068;-75
2022/01/29 06:23:21;;;;;;;18.73;9.00;;;8.90;99.90;;;;;;6156752;23;20327;-75
2022/01/29 06:25:47;;;;;;;18.60;9.43;;;8.90;99.90;;;;;;6155680;23;20064;-76
2022/01/29 06:28:13;;;;;;;20.02;9.13;;;8.90;99.90;;;;;;6157456;23;20021;-74
2022/01/29 06:30:38;;;;;;;19.40;10.15;;;8.90;99.90;;;;;;6156252;23;20028;-75
2022/01/29 06:33:12;;;;;;;23.55;9.15;;;9.00;99.90;;;;;;6156370;23;20349;-75
2022/01/29 06:35:40;;;;;;;12.02;8.50;;;8.90;99.90;;;;;;6156381;23;20017;-74
2022/01/29 06:38:07;;;;;;;20.00;9.00;;;9.00;99.90;;;;;;6155566;23;20028;-75
2022/01/29 06:40:33;;;;;;;15.52;8.13;;;9.00;99.90;;;;;;6157415;23;20022;-76
2022/01/29 06:43:01;;;;;;;13.93;8.73;;;9.00;99.90;;;;;;6154524;23;20087;-76
2022/01/29 06:45:28;;;;;;;15.48;8.70;;;9.00;99.90;;;;;;6157331;23;20346;-74
2022/01/29 06:47:54;;;;;;;11.40;8.52;;;9.00;99.90;;;;;;6157251;23;20017;-75
2022/01/29 06:50:20;;;;;;;19.67;9.00;;;8.90;99.90;;;;;;6154400;23;20028;-75
2022/01/29 06:52:46;;;;;;;16.23;7.53;;;8.90;99.90;;;;;;6157033;23;20017;-74
2022/01/29 06:55:12;;;;;;;14.90;8.13;;;9.00;99.90;;;;;;6157157;23;20378;-75
2022/01/29 06:57:38;;;;;;;14.98;8.40;;;8.90;99.90;;;;;;6156258;23;20025;-76
2022/01/29 07:00:08;;;;;;;17.08;8.73;;;8.90;99.90;;;;;;6155265;23;20025;-76
2022/01/29 07:02:35;;;;;;;17.88;7.93;;;8.90;99.90;;;;;;6155392;23;20083;-75
2022/01/29 07:05:02;;;;;;;14.15;8.43;;;8.90;99.90;;;;;;6154364;23;20022;-75
2022/01/29 07:07:28;;;;;;;13.20;8.55;;;8.90;99.90;;;;;;6157027;23;20018;-75
2022/01/29 07:09:54;;;;;;;17.77;8.93;;;8.90;99.90;;;;;;6160289;23;20018;-75
2022/01/29 07:12:19;;;;;;;18.15;9.15;;;8.90;99.90;;;;;;6185817;23;20508;-76
2022/01/29 07:14:49;;;;;;;16.10;8.77;;;8.90;99.90;;;;;;6186425;23;20021;-75
2022/01/29 07:17:17;;;;;;;16.08;8.88;;;8.90;99.90;;;;;;6186654;23;20017;-74
2022/01/29 07:19:44;;;;;;;19.42;8.95;;;8.90;99.90;;;;;;6185393;23;20025;-75
2022/01/29 07:22:11;;;;;;;17.00;8.55;;;8.90;99.90;;;;;;6159997;23;20032;-76
2022/01/29 07:24:37;;;;;;;21.08;8.50;;;9.00;99.90;;;;;;6160065;23;20081;-75
2022/01/29 07:27:04;;;;;;;13.95;7.60;;;8.90;99.90;;;;;;6185299;23;20035;-76
2022/01/29 07:29:31;;;;;;;18.52;7.97;;;8.90;99.90;;;;;;6186589;23;20013;-75
2022/01/29 07:31:57;;;;;;;13.82;8.05;;;8.90;99.90;;;;;;6159015;23;20100;-75
2022/01/29 07:34:24;;;;;;;14.38;7.85;;;8.90;99.90;;;;;;6186183;23;20105;-75
2022/01/29 07:36:51;;;;;;;16.42;8.02;;;8.90;99.90;;;;;;6185921;23;20024;-75
2022/01/29 07:39:17;;;;;;;17.23;8.85;;;8.90;99.90;;;;;;6184795;23;20021;-75
2022/01/29 07:41:42;;;;;;;16.02;8.10;;;8.90;99.90;;;;;;6159744;23;20040;-75
2022/01/29 07:44:08;;;;;;;18.42;8.27;;;8.90;99.90;;;;;;6159757;23;20028;-76
2022/01/29 07:46:34;;;;;;;18.48;8.75;;;9.00;99.90;;;;;;6158691;23;20389;-75
2022/01/29 07:49:00;;;;;;;16.20;7.82;;;8.90;99.90;;;;;;6186087;23;20017;-75
2022/01/29 07:51:25;;;;;;;12.70;7.68;;;8.90;99.90;;;;;;6185872;23;20013;-75
2022/01/29 07:53:51;;;;;;;19.00;8.43;;;8.90;99.90;;;;;;6185411;23;20031;-75
2022/01/29 07:56:20;;;;;;;21.05;7.95;;;8.90;99.90;;;;;;6186181;23;20021;-75
2022/01/29 07:58:46;;;;;;;14.65;7.00;;;8.90;99.90;;;;;;6186361;23;20342;-76
2022/01/29 08:01:13;;;;;;;20.85;7.63;;;8.90;99.90;;;;;;6185068;23;20088;-76
2022/01/29 08:03:39;;;;;;;19.52;7.90;;;8.80;99.90;;;;;;6159617;23;20155;-76
2022/01/29 08:06:05;;;;;;;17.02;8.10;;;8.80;99.90;;;;;;6159376;23;20048;-76
2022/01/29 08:08:30;;;;;;;17.33;7.22;;;8.80;99.90;;;;;;6184936;23;20013;-75
2022/01/29 08:10:56;;;;;;;20.92;7.43;;;8.70;99.90;;;;;;6154428;23;20029;-76
2022/01/29 08:13:22;;;;;;;16.15;8.02;;;8.70;99.90;;;;;;6156075;23;20076;-76
2022/01/29 08:15:47;;;;;;;20.45;7.25;;;8.70;99.90;;;;;;6155602;23;20025;-75
2022/01/29 08:18:13;;;;;;;19.92;7.72;;;8.70;99.90;;;;;;6156532;23;20021;-75
2022/01/29 08:20:39;;;;;;;17.20;7.07;;;8.70;99.90;;;;;;6156330;23;20024;-76
2022/01/29 08:23:09;;;;;;;18.63;7.40;;;8.70;99.90;;;;;;6155604;23;20052;-75
2022/01/29 08:25:37;;;;;;;16.20;6.57;;;8.70;99.90;;;;;;6156478;23;20017;-76
2022/01/29 08:28:03;;;;;;;15.82;6.45;;;8.70;99.90;;;;;;6156487;23;20017;-75
2022/01/29 08:30:29;;;;;;;22.25;7.18;;;8.70;99.90;;;;;;6155631;23;20378;-76
2022/01/29 08:32:54;;;;;;;12.93;6.53;;;8.70;99.90;;;;;;6156086;23;20021;-75
2022/01/29 08:35:20;;;;;;;11.52;5.60;;;8.70;99.90;;;;;;6153544;23;20049;-75
2022/01/29 08:37:46;;;;;;;20.55;5.78;;;8.80;99.90;;;;;;6155877;23;20029;-76
2022/01/29 08:40:12;;;;;;;13.90;5.22;;;8.80;99.90;;;;;;6157735;23;20018;-75
2022/01/29 08:42:39;;;;;;;19.25;6.30;;;8.80;99.90;;;;;;6155663;23;20434;-75
2022/01/29 08:45:07;;;;;;;17.33;6.05;;;8.80;99.90;;;;;;6158048;23;20435;-75
2022/01/29 08:47:33;;;;;;;18.90;5.28;;;8.90;99.90;;;;;;6156783;23;20026;-76
2022/01/29 08:50:03;;;;;;;13.95;5.50;;;9.00;99.90;;;;;;6155524;23;20337;-75
2022/01/29 08:52:29;;;;;;;14.60;5.70;;;8.90;99.90;;;;;;6156370;23;20060;-76
2022/01/29 08:54:55;;;;;;;10.57;5.30;;;9.00;99.90;;;;;;6156485;23;20029;-75
2022/01/29 08:57:22;;;;;;;10.43;4.43;;;9.10;99.90;;;;;;6155411;23;20157;-76
2022/01/29 08:59:48;;;;;;;15.15;4.78;;;9.10;99.90;;;;;;6158297;23;20345;-75
2022/01/29 09:02:14;;;;;;;14.30;4.05;;;9.10;99.90;;;;;;6157963;23;20089;-76
2022/01/29 09:04:40;;;;;;;13.93;4.60;;;9.10;99.90;;;;;;6155372;23;20017;-75
2022/01/29 09:07:05;;;;;;;11.93;4.70;;;9.10;99.90;;;;;;6156162;23;20021;-75
2022/01/29 09:09:31;;;;;;;10.77;4.32;;;9.10;99.90;;;;;;6158104;23;20036;-75
2022/01/29 09:11:57;;;;;;;14.85;4.80;;;9.10;99.90;;;;;;6155158;23;20017;-75
2022/01/29 09:14:23;;;;;;;10.52;4.30;;;9.10;99.90;;;;;;6157856;23;20053;-74
2022/01/29 09:16:49;;;;;;;16.08;5.15;;;9.20;99.90;;;;;;6156190;23;20489;-76
2022/01/29 09:19:15;;;;;;;15.38;4.97;;;9.20;99.90;;;;;;6156948;23;20018;-76
2022/01/29 09:21:40;;;;;;;10.65;4.40;;;9.20;99.90;;;;;;6156139;23;20076;-76
2022/01/29 09:24:06;;;;;;;15.80;4.28;;;9.20;99.90;;;;;;6158179;23;20100;-77
2022/01/29 09:26:32;;;;;;;9.52;4.00;;;9.20;99.90;;;;;;6157173;23;20052;-76
2022/01/29 09:28:58;;;;;;;10.98;4.05;;;9.20;99.90;;;;;;6158055;23;20017;-76
2022/01/29 09:31:23;;;;;;;13.32;3.85;;;9.20;99.90;;;;;;6158129;23;20017;-76
2022/01/29 09:33:49;;;;;;;11.88;3.70;;;9.30;99.90;;;;;;6157103;23;20021;-76
2022/01/29 09:36:15;;;;;;;15.93;4.63;;;9.30;99.90;;;;;;6155809;23;20017;-76
2022/01/29 09:38:41;;;;;;;11.35;3.92;;;9.20;99.90;;;;;;6156699;23;20021;-76
2022/01/29 09:41:09;;;;;;;12.55;3.92;;;9.30;99.90;;;;;;6155989;23;20048;-75
2022/01/29 09:43:35;;;;;;;13.55;3.80;;;9.30;99.90;;;;;;6156049;23;20025;-76
2022/01/29 09:46:01;;;;;;;11.50;3.72;;;9.30;99.90;;;;;;6157060;23;20010;-75
2022/01/29 09:48:29;;;;;;;17.67;4.38;;;9.30;99.90;;;;;;6157820;23;20013;-75
2022/01/29 09:50:57;;;;;;;12.77;3.67;;;9.30;99.90;;;;;;6157011;23;20434;-75
2022/01/29 09:53:23;;;;;;;15.32;3.78;;;9.30;99.90;;;;;;6156817;23;20021;-75
2022/01/29 09:55:49;;;;;;;11.68;3.55;;;9.30;99.90;;;;;;6155994;23;20379;-76
2022/01/29 09:58:15;;;;;;;14.45;5.10;;;9.40;99.90;;;;;;6157782;23;20076;-75
2022/01/29 10:00:40;;;;;;;14.40;3.35;;;9.40;99.90;;;;;;6156434;23;20021;-74
2022/01/29 10:03:09;;;;;;;13.80;3.20;;;9.40;99.90;;;;;;6157707;23;20013;-75
2022/01/29 10:05:37;;;;;;;11.15;2.67;;;9.50;99.90;;;;;;6157293;23;20411;-76
2022/01/29 10:08:04;;;;;;;11.90;2.92;;;9.50;99.90;;;;;;6156592;23;20013;-75
2022/01/29 10:10:36;;;;;;;15.40;3.65;;;9.60;99.90;;;;;;6155589;23;20446;-75
2022/01/29 10:13:24;;;;;;;8.18;2.30;;;9.70;99.90;;;;;;6155823;23;20323;-76
2022/01/29 10:15:51;;;;;;;12.40;2.80;;;9.70;99.90;;;;;;6156604;23;20017;-76
2022/01/29 10:18:21;;;;;;;8.18;2.35;;;9.70;99.90;;;;;;6157570;23;20332;-75
2022/01/29 10:20:47;;;;;;;9.13;2.45;;;9.80;99.90;;;;;;6156528;23;20049;-75
2022/01/29 10:23:13;;;;;;;13.57;3.33;;;9.80;99.90;;;;;;6157531;23;20032;-75
2022/01/29 10:25:42;;;;;;;8.05;2.30;;;9.90;99.90;;;;;;6157487;23;20084;-76
2022/01/29 10:28:12;;;;;;;12.18;2.05;;;9.90;99.90;;;;;;6156199;23;20018;-76
2022/01/29 10:30:55;;;;;;;9.35;2.30;;;10.00;99.90;;;;;;6157741;23;20397;-75
2022/01/29 10:33:26;;;;;;;8.27;2.38;;;10.00;99.90;;;;;;6155640;23;20024;-75
2022/01/29 10:35:55;;;;;;;11.48;2.10;;;10.00;99.90;;;;;;6154491;23;20037;-74
2022/01/29 10:38:25;;;;;;;11.07;2.25;;;10.10;99.90;;;;;;6155497;23;20029;-74
2022/01/29 10:41:11;;;;;;;9.18;2.38;;;10.10;99.90;;;;;;6155630;23;20022;-75
2022/01/29 10:44:18;;;;;;;11.32;2.13;;;10.20;99.90;;;;;;6156420;23;20029;-76
2022/01/29 10:46:55;;;;;;;10.15;2.30;;;10.20;99.90;;;;;;6155431;23;20021;-75
2022/01/29 10:49:35;;;;;;;11.43;2.05;;;10.20;99.90;;;;;;6156081;23;20021;-74
2022/01/29 10:52:08;;;;;;;8.90;2.10;;;10.30;99.90;;;;;;6155284;23;20017;-76
2022/01/29 10:54:42;;;;;;;11.80;2.38;;;10.30;99.90;;;;;;6155474;23;20080;-76
2022/01/29 10:57:13;;;;;;;8.52;2.63;;;10.30;99.90;;;;;;6154191;23;20025;-75
2022/01/29 10:59:50;;;;;;;7.55;2.40;;;10.30;99.90;;;;;;6157445;23;20442;-75
2022/01/29 11:02:18;;;;;;;11.93;1.92;;;10.30;99.90;;;;;;6156513;23;20022;-76
2022/01/29 11:04:44;;;;;;;9.20;2.42;;;10.30;99.90;;;;;;6155834;23;20025;-75
2022/01/29 11:07:26;;;;;;;11.27;2.60;;;10.30;99.90;;;;;;6155113;23;20017;-75
2022/01/29 11:09:52;;;;;;;9.45;2.00;;;10.30;99.90;;;;;;6158181;23;20088;-75
2022/01/29 11:12:26;;;;;;;8.45;2.97;;;10.40;99.90;;;;;;6159228;23;20488;-75
2022/01/29 11:14:55;;;;;;;10.68;2.30;;;10.40;99.90;;;;;;6186584;23;20025;-76
2022/01/29 11:17:23;;;;;;;14.00;2.55;;;10.40;99.90;;;;;;6158996;23;20036;-76
2022/01/29 11:19:49;;;;;;;13.85;2.58;;;10.40;99.90;;;;;;6159841;23;20084;-75
2022/01/29 11:22:23;;;;;;;10.35;2.15;;;10.40;99.90;;;;;;6186463;23;20052;-75
2022/01/29 11:24:59;;;;;;;9.90;2.53;;;10.40;99.90;;;;;;6185773;23;20076;-75
2022/01/29 11:27:29;;;;;;;12.60;1.73;;;10.40;99.90;;;;;;6186682;23;20056;-75
2022/01/29 11:30:08;;;;;;;6.60;1.85;;;10.40;99.90;;;;;;6159978;23;20017;-75
2022/01/29 11:32:45;;;;;;;8.70;1.80;;;10.40;99.90;;;;;;6159010;23;20021;-75
2022/01/29 11:35:18;;;;;;;9.00;3.33;;;10.50;99.90;;;;;;6160003;23;20027;-75
2022/01/29 11:37:47;;;;;;;7.38;2.33;;;10.40;99.90;;;;;;6186432;23;20381;-76
2022/01/29 11:40:22;;;;;;;16.30;2.70;;;10.50;99.90;;;;;;6185557;23;20025;-75
2022/01/29 11:42:56;;;;;;;;;;;10.50;99.90;;;;;;6186726;23;20020;-74
2022/01/29 11:45:42;;;;;;;10.38;2.03;;;10.50;99.90;;;;;;6185468;23;19916;-74
2022/01/29 11:48:32;;;;;;;10.48;2.08;;;10.60;99.90;;;;;;6185957;23;20024;-75
2022/01/29 11:51:03;;;;;;;7.22;1.52;;;10.70;99.90;;;;;;6138994;23;20017;-75
2022/01/29 11:53:49;;;;;;;10.18;2.55;;;10.80;99.90;;;;;;6185219;23;20092;-75
2022/01/29 11:56:34;;;;;;;11.75;2.08;;;10.80;99.90;;;;;;6159673;23;20021;-75
2022/01/29 11:59:27;;;;;;;11.75;1.73;;;10.80;99.90;;;;;;6186274;23;20013;-75
2022/01/29 12:01:56;;;;;;;12.77;2.60;;;10.90;99.90;;;;;;6159694;23;20024;-75
2022/01/29 12:04:24;;;;;;;7.32;1.88;;;10.90;99.90;;;;;;6159612;23;20032;-74
2022/01/29 12:09:43;;;;;;;8.43;1.77;;;11.00;99.90;;;;;;6159682;23;20159;-74
2022/01/29 12:12:20;;;;;;;6.65;1.55;;;11.00;99.90;;;;;;6159710;23;20021;-75
2022/01/29 12:14:51;;;;;;;10.10;1.20;;;11.00;99.90;;;;;;6185378;23;20341;-75
2022/01/29 12:17:50;;;;;;;10.05;2.00;;;11.00;99.90;;;;;;6186124;23;20021;-75
2022/01/29 12:20:21;;;;;;;5.85;1.50;;;11.00;99.90;;;;;;6158839;23;20021;-75
2022/01/29 12:22:48;;;;;;;8.93;2.20;;;11.00;99.90;;;;;;6159356;23;20457;-75
2022/01/29 12:25:20;;;;;;;6.18;1.30;;;11.00;99.90;;;;;;6159629;23;20021;-74
2022/01/29 12:28:05;;;;;;;8.38;2.00;;;11.00;99.90;;;;;;6158596;23;20013;-74
2022/01/29 12:30:33;;;;;;;6.55;1.58;;;11.00;99.90;;;;;;6186328;23;20021;-75
2022/01/29 12:33:09;;;;;;;12.68;3.70;;;11.00;99.90;;;;;;6186190;23;20136;-75
2022/01/29 12:35:35;;;;;;;14.65;1.83;;;11.10;99.90;;;;;;6184805;23;20048;-76
2022/01/29 12:38:03;;;;;;;7.53;2.05;;;11.10;99.90;;;;;;6185980;23;20017;-75
2022/01/29 12:40:35;;;;;;;7.93;2.45;;;11.10;99.90;;;;;;6159501;23;20071;-74
2022/01/29 12:43:10;;;;;;;11.50;1.92;;;11.20;99.90;;;;;;6185192;23;20009;-75
2022/01/29 12:45:37;;;;;;;8.32;1.63;;;11.20;99.90;;;;;;6186161;23;20021;-75
2022/01/29 12:48:11;;;;;;;8.25;1.70;;;11.20;99.90;;;;;;6159535;23;20386;-73
2022/01/29 12:50:38;;;;;;;12.23;2.35;;;11.20;99.90;;;;;;6158472;23;20385;-75
2022/01/29 12:53:09;;;;;;;9.35;1.83;;;11.10;99.90;;;;;;6186016;23;20036;-74
2022/01/29 12:55:35;;;;;;;7.32;1.98;;;11.10;99.90;;;;;;6158152;23;20103;-74
2022/01/29 12:58:01;;;;;;;8.82;1.50;;;11.10;99.90;;;;;;6159266;23;20025;-75
2022/01/29 13:00:27;;;;;;;10.63;2.10;;;11.00;99.90;;;;;;6186011;23;20096;-74
2022/01/29 13:03:01;;;;;;;13.85;2.40;;;11.00;99.90;;;;;;6185182;23;20021;-75